sensor_id;sensor_type;location;lat;lon;timestamp;pressure;altitude;pressure_sealevel;temperature;humidity
73171;BME280;61381;50.118;19.962;2023-05-10T00:02:33;98812.09;;;5.62;95.80
73171;BME280;61381;50.118;19.962;2023-05-10T00:07:34;98803.25;;;5.56;96.76
73171;BME280;61381;50.118;19.962;2023-05-10T00:12:36;98793.50;;;5.45;96.87
73171;BME280;61381;50.118;19.962;2023-05-10T00:17:37;98798.97;;;5.55;96.14
73171;BME280;61381;50.118;19.962;2023-05-10T00:22:38;98787.31;;;5.56;95.87
73171;BME280;61381;50.118;19.962;2023-05-10T00:27:40;98791.56;;;5.57;96.17
73171;BME280;61381;50.118;19.962;2023-05-10T00:32:41;98780.47;;;5.43;97.89
73171;BME280;61381;50.118;19.962;2023-05-10T00:37:42;98781.44;;;5.37;98.33
73171;BME280;61381;50.118;19.962;2023-05-10T00:42:45;98780.66;;;5.36;98.23
73171;BME280;61381;50.118;19.962;2023-05-10T00:47:46;98773.81;;;5.41;97.33
73171;BME280;61381;50.118;19.962;2023-05-10T00:52:47;98767.13;;;5.38;97.47
73171;BME280;61381;50.118;19.962;2023-05-10T00:57:49;98767.53;;;5.30;98.62
73171;BME280;61381;50.118;19.962;2023-05-10T01:02:50;98762.22;;;5.30;98.53
73171;BME280;61381;50.118;19.962;2023-05-10T01:07:53;98765.13;;;5.28;98.44
73171;BME280;61381;50.118;19.962;2023-05-10T01:12:55;98760.59;;;5.29;98.54
73171;BME280;61381;50.118;19.962;2023-05-10T01:17:56;98756.09;;;5.29;97.88
73171;BME280;61381;50.118;19.962;2023-05-10T01:23:07;98744.91;;;5.27;97.90
73171;BME280;61381;50.118;19.962;2023-05-10T01:28:33;98742.34;;;5.15;99.30
73171;BME280;61381;50.118;19.962;2023-05-10T01:33:47;98749.91;;;5.07;100.00
73171;BME280;61381;50.118;19.962;2023-05-10T01:38:54;98754.47;;;5.11;100.00
73171;BME280;61381;50.118;19.962;2023-05-10T01:44:03;98741.88;;;5.02;100.00
73171;BME280;61381;50.118;19.962;2023-05-10T01:49:09;98743.53;;;4.91;100.00
73171;BME280;61381;50.118;19.962;2023-05-10T01:54:12;98739.69;;;4.81;100.00
73171;BME280;61381;50.118;19.962;2023-05-10T01:59:17;98734.91;;;4.67;100.00
73171;BME280;61381;50.118;19.962;2023-05-10T02:04:22;98732.25;;;4.67;100.00
73171;BME280;61381;50.118;19.962;2023-05-10T02:09:25;98720.94;;;4.71;100.00
73171;BME280;61381;50.118;19.962;2023-05-10T02:14:30;98718.69;;;4.63;100.00
73171;BME280;61381;50.118;19.962;2023-05-10T02:19:36;98720.84;;;4.66;100.00
73171;BME280;61381;50.118;19.962;2023-05-10T02:24:38;98713.84;;;4.60;100.00
73171;BME280;61381;50.118;19.962;2023-05-10T02:29:40;98709.44;;;4.66;100.00
73171;BME280;61381;50.118;19.962;2023-05-10T02:34:43;98706.78;;;4.66;100.00
73171;BME280;61381;50.118;19.962;2023-05-10T02:39:46;98699.56;;;4.61;100.00
73171;BME280;61381;50.118;19.962;2023-05-10T02:44:48;98704.75;;;4.56;100.00
73171;BME280;61381;50.118;19.962;2023-05-10T02:49:53;98711.00;;;4.50;100.00
73171;BME280;61381;50.118;19.962;2023-05-10T02:54:56;98699.44;;;4.56;100.00
73171;BME280;61381;50.118;19.962;2023-05-10T02:59:59;98703.66;;;4.69;100.00
73171;BME280;61381;50.118;19.962;2023-05-10T03:05:01;98702.41;;;4.59;100.00
73171;BME280;61381;50.118;19.962;2023-05-10T03:10:03;98701.84;;;4.57;100.00
73171;BME280;61381;50.118;19.962;2023-05-10T03:15:11;98706.13;;;4.58;100.00
73171;BME280;61381;50.118;19.962;2023-05-10T03:20:21;98696.72;;;4.68;100.00
73171;BME280;61381;50.118;19.962;2023-05-10T03:25:23;98703.19;;;4.72;100.00
73171;BME280;61381;50.118;19.962;2023-05-10T03:30:24;98702.69;;;4.75;100.00
73171;BME280;61381;50.118;19.962;2023-05-10T03:35:27;98701.16;;;4.79;100.00
73171;BME280;61381;50.118;19.962;2023-05-10T03:40:28;98704.16;;;4.82;100.00
73171;BME280;61381;50.118;19.962;2023-05-10T03:45:29;98707.34;;;4.85;100.00
73171;BME280;61381;50.118;19.962;2023-05-10T03:50:32;98705.97;;;4.82;100.00
73171;BME280;61381;50.118;19.962;2023-05-10T03:55:33;98708.88;;;4.97;100.00
73171;BME280;61381;50.118;19.962;2023-05-10T04:00:33;98708.00;;;5.09;100.00
73171;BME280;61381;50.118;19.962;2023-05-10T04:05:36;98710.69;;;5.31;100.00
73171;BME280;61381;50.118;19.962;2023-05-10T04:10:37;98713.63;;;7.42;89.92
73171;BME280;61381;50.118;19.962;2023-05-10T04:15:38;98726.28;;;10.30;71.89
73171;BME280;61381;50.118;19.962;2023-05-10T04:20:40;98720.81;;;11.49;63.75
73171;BME280;61381;50.118;19.962;2023-05-10T04:25:41;98728.94;;;11.68;62.41
73171;BME280;61381;50.118;19.962;2023-05-10T04:30:42;98742.19;;;12.70;57.85
73171;BME280;61381;50.118;19.962;2023-05-10T04:35:44;98745.44;;;13.65;54.47
73171;BME280;61381;50.118;19.962;2023-05-10T04:40:45;98740.88;;;14.07;53.89
73171;BME280;61381;50.118;19.962;2023-05-10T04:45:46;98741.63;;;13.19;55.78
73171;BME280;61381;50.118;19.962;2023-05-10T04:50:49;98742.81;;;14.30;53.97
73171;BME280;61381;50.118;19.962;2023-05-10T04:55:50;98744.94;;;13.77;55.12
73171;BME280;61381;50.118;19.962;2023-05-10T05:00:51;98749.06;;;15.43;50.64
73171;BME280;61381;50.118;19.962;2023-05-10T05:05:53;98746.22;;;16.29;49.76
73171;BME280;61381;50.118;19.962;2023-05-10T05:10:54;98750.78;;;16.02;49.44
73171;BME280;61381;50.118;19.962;2023-05-10T05:15:55;98747.16;;;16.24;47.85
73171;BME280;61381;50.118;19.962;2023-05-10T05:20:58;98738.63;;;16.83;47.42
73171;BME280;61381;50.118;19.962;2023-05-10T05:25:59;98759.13;;;17.84;44.48
73171;BME280;61381;50.118;19.962;2023-05-10T05:31:00;98757.81;;;18.92;42.29
73171;BME280;61381;50.118;19.962;2023-05-10T05:36:03;98763.88;;;19.10;40.64
73171;BME280;61381;50.118;19.962;2023-05-10T05:41:05;98749.78;;;18.32;42.74
73171;BME280;61381;50.118;19.962;2023-05-10T05:46:06;98755.44;;;18.48;43.11
73171;BME280;61381;50.118;19.962;2023-05-10T05:51:08;98755.88;;;17.52;44.75
73171;BME280;61381;50.118;19.962;2023-05-10T05:56:09;98764.03;;;18.21;42.69
73171;BME280;61381;50.118;19.962;2023-05-10T06:01:10;98760.22;;;17.27;45.84
73171;BME280;61381;50.118;19.962;2023-05-10T06:06:12;98774.41;;;18.69;42.88
73171;BME280;61381;50.118;19.962;2023-05-10T06:11:13;98770.56;;;18.70;41.45
73171;BME280;61381;50.118;19.962;2023-05-10T06:16:14;98765.94;;;18.71;42.42
73171;BME280;61381;50.118;19.962;2023-05-10T06:21:17;98772.84;;;18.89;42.21
73171;BME280;61381;50.118;19.962;2023-05-10T06:26:18;98767.56;;;18.21;43.88
73171;BME280;61381;50.118;19.962;2023-05-10T06:31:19;98770.00;;;19.07;42.06
73171;BME280;61381;50.118;19.962;2023-05-10T06:36:21;98778.34;;;19.48;40.89
73171;BME280;61381;50.118;19.962;2023-05-10T06:41:22;98780.28;;;20.05;40.15
73171;BME280;61381;50.118;19.962;2023-05-10T06:46:23;98783.50;;;21.29;38.50
73171;BME280;61381;50.118;19.962;2023-05-10T06:51:26;98776.78;;;19.47;41.02
73171;BME280;61381;50.118;19.962;2023-05-10T06:56:27;98778.91;;;19.07;41.63
73171;BME280;61381;50.118;19.962;2023-05-10T07:01:28;98766.75;;;17.91;44.94
73171;BME280;61381;50.118;19.962;2023-05-10T07:06:30;98772.09;;;20.30;40.56
73171;BME280;61381;50.118;19.962;2023-05-10T07:11:31;98768.03;;;20.24;40.46
73171;BME280;61381;50.118;19.962;2023-05-10T07:16:32;98773.38;;;21.58;37.96
73171;BME280;61381;50.118;19.962;2023-05-10T07:21:36;98768.56;;;19.22;41.88
73171;BME280;61381;50.118;19.962;2023-05-10T07:26:37;98762.47;;;18.41;44.61
73171;BME280;61381;50.118;19.962;2023-05-10T07:31:38;98770.41;;;19.30;42.84
73171;BME280;61381;50.118;19.962;2023-05-10T07:36:40;98777.38;;;20.76;41.24
73171;BME280;61381;50.118;19.962;2023-05-10T07:41:41;98766.50;;;22.12;38.41
73171;BME280;61381;50.118;19.962;2023-05-10T07:46:42;98760.56;;;17.90;45.72
73171;BME280;61381;50.118;19.962;2023-05-10T07:51:44;98759.22;;;18.56;46.36
73171;BME280;61381;50.118;19.962;2023-05-10T07:56:46;98746.78;;;18.25;46.51
73171;BME280;61381;50.118;19.962;2023-05-10T08:01:47;98739.41;;;17.66;48.71
73171;BME280;61381;50.118;19.962;2023-05-10T08:06:49;98736.72;;;17.66;48.24
73171;BME280;61381;50.118;19.962;2023-05-10T08:11:50;98742.00;;;18.22;47.26
73171;BME280;61381;50.118;19.962;2023-05-10T08:16:51;98742.50;;;17.94;45.90
73171;BME280;61381;50.118;19.962;2023-05-10T08:21:53;98730.19;;;18.27;44.64
73171;BME280;61381;50.118;19.962;2023-05-10T08:26:54;98730.72;;;19.04;43.07
73171;BME280;61381;50.118;19.962;2023-05-10T08:31:56;98729.72;;;19.21;41.36
73171;BME280;61381;50.118;19.962;2023-05-10T08:36:58;98730.06;;;20.03;41.41
73171;BME280;61381;50.118;19.962;2023-05-10T08:42:01;98733.94;;;20.02;38.80
73171;BME280;61381;50.118;19.962;2023-05-10T08:47:04;98729.06;;;20.60;40.26
73171;BME280;61381;50.118;19.962;2023-05-10T08:52:07;98727.94;;;18.71;41.71
73171;BME280;61381;50.118;19.962;2023-05-10T08:57:09;98730.47;;;19.68;39.99
73171;BME280;61381;50.118;19.962;2023-05-10T09:02:11;98737.91;;;20.70;36.71
73171;BME280;61381;50.118;19.962;2023-05-10T09:07:15;98733.03;;;19.98;38.93
73171;BME280;61381;50.118;19.962;2023-05-10T09:12:16;98737.53;;;20.06;39.07
73171;BME280;61381;50.118;19.962;2023-05-10T09:17:17;98726.28;;;18.79;38.49
73171;BME280;61381;50.118;19.962;2023-05-10T09:22:20;98727.34;;;18.23;39.54
73171;BME280;61381;50.118;19.962;2023-05-10T09:27:26;98733.94;;;20.02;36.92
73171;BME280;61381;50.118;19.962;2023-05-10T09:32:37;98726.72;;;19.35;38.83
73171;BME280;61381;50.118;19.962;2023-05-10T09:37:42;98735.34;;;18.62;39.50
73171;BME280;61381;50.118;19.962;2023-05-10T09:42:51;98733.88;;;19.52;37.31
73171;BME280;61381;50.118;19.962;2023-05-10T09:47:52;98722.06;;;19.23;39.70
73171;BME280;61381;50.118;19.962;2023-05-10T09:52:57;98716.78;;;18.51;39.59
73171;BME280;61381;50.118;19.962;2023-05-10T09:57:59;98727.16;;;18.49;40.91
73171;BME280;61381;50.118;19.962;2023-05-10T10:03:01;98724.78;;;18.90;38.44
73171;BME280;61381;50.118;19.962;2023-05-10T10:08:05;98717.25;;;18.53;38.94
73171;BME280;61381;50.118;19.962;2023-05-10T10:13:06;98703.81;;;18.15;39.66
73171;BME280;61381;50.118;19.962;2023-05-10T10:18:12;98706.38;;;18.32;38.98
73171;BME280;61381;50.118;19.962;2023-05-10T10:23:14;98707.00;;;18.08;38.33
73171;BME280;61381;50.118;19.962;2023-05-10T10:28:22;98711.88;;;18.87;37.94
73171;BME280;61381;50.118;19.962;2023-05-10T10:33:40;98697.13;;;19.21;37.72
73171;BME280;61381;50.118;19.962;2023-05-10T10:38:57;98700.50;;;18.51;35.30
73171;BME280;61381;50.118;19.962;2023-05-10T10:44:23;98690.97;;;18.45;37.06
73171;BME280;61381;50.118;19.962;2023-05-10T10:49:24;98698.56;;;18.73;35.84
73171;BME280;61381;50.118;19.962;2023-05-10T10:54:28;98673.72;;;18.29;38.40
73171;BME280;61381;50.118;19.962;2023-05-10T10:59:29;98680.19;;;19.61;36.02
73171;BME280;61381;50.118;19.962;2023-05-10T11:04:41;98680.78;;;19.92;35.28
73171;BME280;61381;50.118;19.962;2023-05-10T11:09:44;98671.69;;;19.63;35.87
73171;BME280;61381;50.118;19.962;2023-05-10T11:14:49;98666.16;;;19.47;37.61
73171;BME280;61381;50.118;19.962;2023-05-10T11:20:06;98673.28;;;19.39;35.92
73171;BME280;61381;50.118;19.962;2023-05-10T11:25:09;98661.63;;;19.76;33.93
73171;BME280;61381;50.118;19.962;2023-05-10T11:30:11;98666.47;;;19.21;34.95
73171;BME280;61381;50.118;19.962;2023-05-10T11:35:13;98656.50;;;20.52;35.25
73171;BME280;61381;50.118;19.962;2023-05-10T11:40:15;98652.91;;;19.46;36.67
73171;BME280;61381;50.118;19.962;2023-05-10T11:45:17;98641.59;;;19.56;36.17
73171;BME280;61381;50.118;19.962;2023-05-10T11:50:18;98649.72;;;20.46;33.79
73171;BME280;61381;50.118;19.962;2023-05-10T11:55:20;98652.69;;;19.75;34.61
73171;BME280;61381;50.118;19.962;2023-05-10T12:00:22;98653.84;;;18.92;36.96
73171;BME280;61381;50.118;19.962;2023-05-10T12:05:23;98650.84;;;18.84;37.32
73171;BME280;61381;50.118;19.962;2023-05-10T12:10:26;98644.50;;;19.14;37.25
73171;BME280;61381;50.118;19.962;2023-05-10T12:15:27;98631.81;;;20.04;36.47
73171;BME280;61381;50.118;19.962;2023-05-10T12:20:28;98624.47;;;19.55;35.48
73171;BME280;61381;50.118;19.962;2023-05-10T12:25:32;98628.88;;;19.72;36.75
73171;BME280;61381;50.118;19.962;2023-05-10T12:30:34;98629.38;;;19.50;34.60
73171;BME280;61381;50.118;19.962;2023-05-10T12:35:44;98623.25;;;19.90;35.23
73171;BME280;61381;50.118;19.962;2023-05-10T12:40:47;98627.41;;;20.69;33.89
73171;BME280;61381;50.118;19.962;2023-05-10T12:45:48;98629.97;;;20.77;34.10
73171;BME280;61381;50.118;19.962;2023-05-10T12:50:50;98613.66;;;20.08;34.33
73171;BME280;61381;50.118;19.962;2023-05-10T12:55:52;98606.69;;;19.70;36.50
73171;BME280;61381;50.118;19.962;2023-05-10T13:00:53;98598.78;;;20.46;36.18
73171;BME280;61381;50.118;19.962;2023-05-10T13:05:54;98604.59;;;21.37;34.07
73171;BME280;61381;50.118;19.962;2023-05-10T13:10:57;98602.56;;;20.70;33.74
73171;BME280;61381;50.118;19.962;2023-05-10T13:15:58;98592.97;;;20.76;34.75
73171;BME280;61381;50.118;19.962;2023-05-10T13:20:59;98592.28;;;21.59;32.51
73171;BME280;61381;50.118;19.962;2023-05-10T13:26:01;98589.22;;;21.29;33.51
73171;BME280;61381;50.118;19.962;2023-05-10T13:31:02;98593.09;;;21.28;32.82
73171;BME280;61381;50.118;19.962;2023-05-10T13:36:04;98592.31;;;20.23;34.06
73171;BME280;61381;50.118;19.962;2023-05-10T13:41:06;98577.75;;;20.59;35.37
73171;BME280;61381;50.118;19.962;2023-05-10T13:46:07;98579.50;;;21.12;33.38
73171;BME280;61381;50.118;19.962;2023-05-10T13:51:08;98565.69;;;19.63;34.64
73171;BME280;61381;50.118;19.962;2023-05-10T13:56:11;98555.94;;;20.43;34.93
73171;BME280;61381;50.118;19.962;2023-05-10T14:01:12;98549.06;;;20.34;34.38
73171;BME280;61381;50.118;19.962;2023-05-10T14:06:13;98548.69;;;20.47;34.56
73171;BME280;61381;50.118;19.962;2023-05-10T14:11:15;98561.72;;;21.02;33.60
73171;BME280;61381;50.118;19.962;2023-05-10T14:16:16;98549.53;;;21.47;34.03
73171;BME280;61381;50.118;19.962;2023-05-10T14:21:19;98532.44;;;20.51;34.44
73171;BME280;61381;50.118;19.962;2023-05-10T14:26:21;98545.56;;;20.33;35.13
73171;BME280;61381;50.118;19.962;2023-05-10T14:31:22;98542.94;;;20.97;34.77
73171;BME280;61381;50.118;19.962;2023-05-10T14:36:23;98539.50;;;20.84;33.74
73171;BME280;61381;50.118;19.962;2023-05-10T14:41:26;98529.09;;;20.58;34.31
73171;BME280;61381;50.118;19.962;2023-05-10T14:46:27;98539.78;;;20.06;34.28
73171;BME280;61381;50.118;19.962;2023-05-10T14:51:28;98542.22;;;20.24;34.99
73171;BME280;61381;50.118;19.962;2023-05-10T14:56:31;98536.06;;;20.27;35.57
73171;BME280;61381;50.118;19.962;2023-05-10T15:01:32;98538.84;;;20.14;34.29
73171;BME280;61381;50.118;19.962;2023-05-10T15:06:34;98542.28;;;20.27;34.59
73171;BME280;61381;50.118;19.962;2023-05-10T15:11:36;98533.84;;;20.17;35.17
73171;BME280;61381;50.118;19.962;2023-05-10T15:16:37;98529.88;;;19.86;34.93
73171;BME280;61381;50.118;19.962;2023-05-10T15:21:38;98527.34;;;19.40;35.64
73171;BME280;61381;50.118;19.962;2023-05-10T15:26:41;98524.53;;;19.36;35.55
73171;BME280;61381;50.118;19.962;2023-05-10T15:31:42;98515.72;;;19.27;36.45
73171;BME280;61381;50.118;19.962;2023-05-10T15:36:43;98511.53;;;19.30;37.19
73171;BME280;61381;50.118;19.962;2023-05-10T15:41:45;98514.81;;;19.23;36.72
73171;BME280;61381;50.118;19.962;2023-05-10T15:46:46;98509.41;;;18.98;37.22
73171;BME280;61381;50.118;19.962;2023-05-10T15:51:47;98509.69;;;18.72;38.12
73171;BME280;61381;50.118;19.962;2023-05-10T15:56:50;98519.53;;;18.77;37.77
73171;BME280;61381;50.118;19.962;2023-05-10T16:01:51;98521.47;;;18.64;37.94
73171;BME280;61381;50.118;19.962;2023-05-10T16:06:52;98516.09;;;19.01;38.57
73171;BME280;61381;50.118;19.962;2023-05-10T16:11:55;98524.63;;;18.66;38.14
73171;BME280;61381;50.118;19.962;2023-05-10T16:16:56;98517.72;;;18.56;38.17
73171;BME280;61381;50.118;19.962;2023-05-10T16:21:57;98526.88;;;18.64;38.67
73171;BME280;61381;50.118;19.962;2023-05-10T16:26:59;98529.28;;;18.78;38.85
73171;BME280;61381;50.118;19.962;2023-05-10T16:32:01;98496.94;;;18.27;38.67
73171;BME280;61381;50.118;19.962;2023-05-10T16:37:02;98533.19;;;18.22;39.09
73171;BME280;61381;50.118;19.962;2023-05-10T16:42:05;98530.72;;;18.17;39.73
73171;BME280;61381;50.118;19.962;2023-05-10T16:47:06;98534.16;;;18.39;40.17
73171;BME280;61381;50.118;19.962;2023-05-10T16:52:08;98536.31;;;17.99;39.08
73171;BME280;61381;50.118;19.962;2023-05-10T16:57:10;98532.31;;;17.76;39.85
73171;BME280;61381;50.118;19.962;2023-05-10T17:02:11;98542.34;;;17.75;40.22
73171;BME280;61381;50.118;19.962;2023-05-10T17:07:13;98539.50;;;17.51;40.76
73171;BME280;61381;50.118;19.962;2023-05-10T17:12:15;98545.25;;;17.49;41.63
73171;BME280;61381;50.118;19.962;2023-05-10T17:17:16;98536.22;;;17.15;43.72
73171;BME280;61381;50.118;19.962;2023-05-10T17:22:17;98533.25;;;16.99;44.13
73171;BME280;61381;50.118;19.962;2023-05-10T17:27:20;98542.75;;;16.67;44.21
73171;BME280;61381;50.118;19.962;2023-05-10T17:32:21;98548.53;;;16.48;44.92
73171;BME280;61381;50.118;19.962;2023-05-10T17:37:22;98555.19;;;16.41;45.99
73171;BME280;61381;50.118;19.962;2023-05-10T17:42:24;98550.81;;;16.02;46.82
73171;BME280;61381;50.118;19.962;2023-05-10T17:47:26;98561.28;;;15.86;47.54
73171;BME280;61381;50.118;19.962;2023-05-10T17:52:27;98557.75;;;15.59;47.91
73171;BME280;61381;50.118;19.962;2023-05-10T17:57:29;98570.38;;;15.32;47.73
73171;BME280;61381;50.118;19.962;2023-05-10T18:02:30;98583.31;;;15.04;47.65
73171;BME280;61381;50.118;19.962;2023-05-10T18:07:31;98594.72;;;14.70;48.59
73171;BME280;61381;50.118;19.962;2023-05-10T18:12:33;98588.72;;;14.50;48.54
73171;BME280;61381;50.118;19.962;2023-05-10T18:17:34;98592.38;;;14.32;49.29
73171;BME280;61381;50.118;19.962;2023-05-10T18:22:35;98584.91;;;14.06;50.57
73171;BME280;61381;50.118;19.962;2023-05-10T18:27:38;98604.91;;;13.91;50.51
73171;BME280;61381;50.118;19.962;2023-05-10T18:32:39;98612.50;;;13.75;50.81
73171;BME280;61381;50.118;19.962;2023-05-10T18:37:40;98602.34;;;13.58;51.35
73171;BME280;61381;50.118;19.962;2023-05-10T18:42:43;98616.72;;;13.40;51.58
73171;BME280;61381;50.118;19.962;2023-05-10T18:47:44;98615.72;;;13.22;52.49
73171;BME280;61381;50.118;19.962;2023-05-10T18:52:45;98619.78;;;13.05;52.11
73171;BME280;61381;50.118;19.962;2023-05-10T18:57:48;98624.63;;;12.89;53.11
73171;BME280;61381;50.118;19.962;2023-05-10T19:02:49;98621.84;;;12.80;52.52
73171;BME280;61381;50.118;19.962;2023-05-10T19:07:50;98632.88;;;12.79;52.55
73171;BME280;61381;50.118;19.962;2023-05-10T19:12:52;98634.31;;;12.57;53.08
73171;BME280;61381;50.118;19.962;2023-05-10T19:17:53;98638.19;;;12.51;53.20
73171;BME280;61381;50.118;19.962;2023-05-10T19:22:54;98634.25;;;12.43;53.38
73171;BME280;61381;50.118;19.962;2023-05-10T19:27:57;98637.91;;;12.34;53.97
73171;BME280;61381;50.118;19.962;2023-05-10T19:32:58;98634.78;;;12.26;54.51
73171;BME280;61381;50.118;19.962;2023-05-10T19:37:59;98643.13;;;12.06;55.18
73171;BME280;61381;50.118;19.962;2023-05-10T19:43:02;98646.78;;;11.96;55.43
73171;BME280;61381;50.118;19.962;2023-05-10T19:48:04;98641.53;;;11.81;56.15
73171;BME280;61381;50.118;19.962;2023-05-10T19:53:05;98645.16;;;11.71;56.69
73171;BME280;61381;50.118;19.962;2023-05-10T19:58:07;98636.94;;;11.62;56.86
73171;BME280;61381;50.118;19.962;2023-05-10T20:03:09;98646.44;;;11.54;56.95
73171;BME280;61381;50.118;19.962;2023-05-10T20:08:10;98646.00;;;11.47;57.27
73171;BME280;61381;50.118;19.962;2023-05-10T20:13:12;98643.06;;;11.43;57.43
73171;BME280;61381;50.118;19.962;2023-05-10T20:18:13;98639.19;;;11.31;58.01
73171;BME280;61381;50.118;19.962;2023-05-10T20:23:14;98650.50;;;11.28;57.98
73171;BME280;61381;50.118;19.962;2023-05-10T20:28:20;98648.44;;;11.19;58.39
73171;BME280;61381;50.118;19.962;2023-05-10T20:33:21;98653.94;;;11.04;59.51
73171;BME280;61381;50.118;19.962;2023-05-10T20:38:23;98646.53;;;10.96;60.00
73171;BME280;61381;50.118;19.962;2023-05-10T20:43:25;98654.91;;;10.89;60.13
73171;BME280;61381;50.118;19.962;2023-05-10T20:48:26;98642.34;;;10.84;60.51
73171;BME280;61381;50.118;19.962;2023-05-10T20:53:27;98647.31;;;10.67;62.10
73171;BME280;61381;50.118;19.962;2023-05-10T20:58:30;98642.56;;;10.59;62.59
73171;BME280;61381;50.118;19.962;2023-05-10T21:03:31;98645.41;;;10.33;63.66
73171;BME280;61381;50.118;19.962;2023-05-10T21:08:32;98642.47;;;10.29;63.95
73171;BME280;61381;50.118;19.962;2023-05-10T21:13:34;98645.44;;;10.28;64.57
73171;BME280;61381;50.118;19.962;2023-05-10T21:18:35;98650.06;;;10.12;64.90
73171;BME280;61381;50.118;19.962;2023-05-10T21:23:36;98647.72;;;10.05;65.14
73171;BME280;61381;50.118;19.962;2023-05-10T21:28:39;98648.03;;;9.93;65.86
73171;BME280;61381;50.118;19.962;2023-05-10T21:33:40;98653.41;;;9.88;66.58
73171;BME280;61381;50.118;19.962;2023-05-10T21:38:41;98653.22;;;9.69;67.54
73171;BME280;61381;50.118;19.962;2023-05-10T21:43:43;98648.16;;;9.68;67.69
73171;BME280;61381;50.118;19.962;2023-05-10T21:48:44;98645.75;;;9.66;67.58
73171;BME280;61381;50.118;19.962;2023-05-10T21:53:46;98644.72;;;9.57;68.03
73171;BME280;61381;50.118;19.962;2023-05-10T21:58:48;98650.88;;;9.52;67.85
73171;BME280;61381;50.118;19.962;2023-05-10T22:03:49;98656.22;;;9.52;68.11
73171;BME280;61381;50.118;19.962;2023-05-10T22:08:50;98657.63;;;9.39;68.99
73171;BME280;61381;50.118;19.962;2023-05-10T22:13:53;98651.75;;;9.37;68.79
73171;BME280;61381;50.118;19.962;2023-05-10T22:18:54;98646.94;;;9.39;68.83
73171;BME280;61381;50.118;19.962;2023-05-10T22:23:55;98661.63;;;9.37;68.83
73171;BME280;61381;50.118;19.962;2023-05-10T22:28:57;98659.50;;;9.34;69.07
73171;BME280;61381;50.118;19.962;2023-05-10T22:33:58;98654.97;;;9.29;69.25
73171;BME280;61381;50.118;19.962;2023-05-10T22:38:59;98660.31;;;9.29;69.38
73171;BME280;61381;50.118;19.962;2023-05-10T22:44:02;98662.75;;;9.15;69.98
73171;BME280;61381;50.118;19.962;2023-05-10T22:49:03;98666.00;;;9.07;70.57
73171;BME280;61381;50.118;19.962;2023-05-10T22:54:04;98668.66;;;9.02;70.97
73171;BME280;61381;50.118;19.962;2023-05-10T22:59:06;98661.72;;;8.90;71.87
73171;BME280;61381;50.118;19.962;2023-05-10T23:04:07;98663.06;;;8.88;71.58
73171;BME280;61381;50.118;19.962;2023-05-10T23:09:08;98658.78;;;8.92;71.22
73171;BME280;61381;50.118;19.962;2023-05-10T23:14:10;98666.00;;;8.91;71.17
73171;BME280;61381;50.118;19.962;2023-05-10T23:19:11;98669.75;;;8.90;71.27
73171;BME280;61381;50.118;19.962;2023-05-10T23:24:12;98662.00;;;8.73;72.33
73171;BME280;61381;50.118;19.962;2023-05-10T23:29:15;98664.66;;;8.73;72.31
73171;BME280;61381;50.118;19.962;2023-05-10T23:34:16;98674.03;;;8.66;72.91
73171;BME280;61381;50.118;19.962;2023-05-10T23:39:17;98662.56;;;8.65;73.63
73171;BME280;61381;50.118;19.962;2023-05-10T23:44:19;98674.28;;;8.54;73.72
73171;BME280;61381;50.118;19.962;2023-05-10T23:49:20;98673.75;;;8.52;73.54
73171;BME280;61381;50.118;19.962;2023-05-10T23:54:21;98676.16;;;8.53;73.67
73171;BME280;61381;50.118;19.962;2023-05-10T23:59:24;98679.31;;;8.45;74.41
